createdAt,value
2018-12-14T00:00:56.560Z,0.00
2018-12-14T00:03:23.964Z,-0.10
2018-12-14T00:05:51.384Z,-0.20
2018-12-14T00:08:18.910Z,-0.20
2018-12-14T00:10:46.341Z,-0.20
2018-12-14T00:13:13.749Z,-0.20
2018-12-14T00:15:41.172Z,-0.30
2018-12-14T00:18:08.567Z,-0.20
2018-12-14T00:20:35.996Z,-0.10
2018-12-14T00:23:03.414Z,-0.20
2018-12-14T00:25:30.831Z,-0.20
2018-12-14T00:27:58.230Z,-0.20
2018-12-14T00:30:25.708Z,-0.30
2018-12-14T00:32:53.104Z,-0.20
2018-12-14T00:35:20.675Z,-0.10
2018-12-14T00:37:48.100Z,-0.20
2018-12-14T00:40:15.530Z,-0.20
2018-12-14T00:42:42.935Z,-0.10
2018-12-14T00:45:10.366Z,-0.20
2018-12-14T00:47:37.755Z,-0.30
2018-12-14T00:50:06.355Z,-0.20
2018-12-14T00:52:33.738Z,-0.30
2018-12-14T00:55:01.145Z,-0.20
2018-12-14T00:57:28.550Z,-0.20
2018-12-14T00:59:56.033Z,-0.20
2018-12-14T01:02:28.400Z,-0.20
2018-12-14T01:04:56.519Z,-0.10
2018-12-14T01:07:23.909Z,-0.20
2018-12-14T01:09:51.339Z,-0.30
2018-12-14T01:12:18.864Z,-0.30
2018-12-14T01:14:46.427Z,-0.20
2018-12-14T01:17:13.966Z,-0.20
2018-12-14T01:19:41.411Z,-0.30
2018-12-14T01:22:08.807Z,-0.30
2018-12-14T01:24:36.229Z,-0.30
2018-12-14T01:27:03.761Z,-0.20
2018-12-14T01:29:31.248Z,-0.20
2018-12-14T01:31:58.632Z,-0.20
2018-12-14T01:34:26.061Z,-0.20
2018-12-14T01:36:53.539Z,-0.20
2018-12-14T01:39:21.045Z,-0.20
2018-12-14T01:41:48.492Z,-0.10
2018-12-14T01:44:15.938Z,-0.20
2018-12-14T01:46:43.371Z,-0.20
2018-12-14T01:49:10.760Z,-0.20
2018-12-14T01:51:38.182Z,-0.20
2018-12-14T01:54:05.621Z,-0.20
2018-12-14T01:56:33.063Z,-0.20
2018-12-14T01:59:00.440Z,-0.20
2018-12-14T02:01:27.851Z,-0.20
2018-12-14T02:03:55.260Z,-0.20
2018-12-14T02:06:22.808Z,-0.10
2018-12-14T02:08:50.298Z,-0.20
2018-12-14T02:11:17.723Z,-0.30
2018-12-14T02:13:45.186Z,-0.30
2018-12-14T02:16:12.613Z,-0.30
2018-12-14T02:18:40.003Z,-0.20
2018-12-14T02:21:07.425Z,-0.30
2018-12-14T02:23:34.819Z,-0.20
2018-12-14T02:26:02.280Z,-0.30
2018-12-14T02:28:29.744Z,-0.30
2018-12-14T02:30:57.191Z,-0.20
2018-12-14T02:33:24.596Z,-0.20
2018-12-14T02:35:51.995Z,-0.20
2018-12-14T02:38:19.408Z,-0.20
2018-12-14T02:40:46.967Z,-0.20
2018-12-14T02:43:14.521Z,-0.20
2018-12-14T02:45:42.028Z,-0.30
2018-12-14T02:48:09.542Z,-0.20
2018-12-14T02:50:36.995Z,-0.20
2018-12-14T02:53:04.404Z,-0.20
2018-12-14T02:55:31.833Z,-0.20
2018-12-14T02:57:59.241Z,-0.10
2018-12-14T03:00:26.707Z,-0.10
2018-12-14T03:02:54.121Z,-0.10
2018-12-14T03:05:21.690Z,-0.20
2018-12-14T03:07:49.111Z,-0.30
2018-12-14T03:10:16.698Z,-0.30
2018-12-14T03:12:44.122Z,-0.20
2018-12-14T03:15:11.798Z,-0.20
2018-12-14T03:17:39.349Z,-0.30
2018-12-14T03:20:07.583Z,-0.20
2018-12-14T03:22:35.232Z,-0.20
2018-12-14T03:25:02.658Z,-0.10
2018-12-14T03:27:30.053Z,-0.20
2018-12-14T03:29:57.524Z,-0.30
2018-12-14T03:32:24.925Z,-0.30
2018-12-14T03:34:52.355Z,-0.30
2018-12-14T03:37:19.896Z,-0.30
2018-12-14T03:39:47.314Z,-0.30
2018-12-14T03:42:14.986Z,-0.20
2018-12-14T03:44:42.525Z,-0.20
2018-12-14T03:47:09.936Z,-0.30
2018-12-14T03:49:37.360Z,-0.30
2018-12-14T03:52:04.932Z,-0.30
2018-12-14T03:54:32.456Z,-0.30
2018-12-14T03:56:59.891Z,-0.20
2018-12-14T03:59:27.304Z,-0.20
2018-12-14T04:01:54.753Z,-0.30
2018-12-14T04:04:22.143Z,-0.20
2018-12-14T04:06:49.555Z,-0.20
2018-12-14T04:09:17.124Z,-0.30
2018-12-14T04:11:44.537Z,-0.30
2018-12-14T04:14:11.948Z,-0.30
2018-12-14T04:16:39.388Z,-0.30
2018-12-14T04:19:06.807Z,-0.30
2018-12-14T04:21:34.219Z,-0.30
2018-12-14T04:24:01.622Z,-0.30
2018-12-14T04:26:29.085Z,-0.30
2018-12-14T04:28:56.490Z,-0.30
2018-12-14T04:31:23.904Z,-0.30
2018-12-14T04:33:51.316Z,-0.20
2018-12-14T04:36:18.739Z,-0.20
2018-12-14T04:38:46.134Z,-0.20
2018-12-14T04:41:13.552Z,-0.30
2018-12-14T04:43:40.959Z,-0.30
2018-12-14T04:46:08.397Z,-0.30
2018-12-14T04:48:42.615Z,-0.20
2018-12-14T04:51:10.049Z,-0.20
2018-12-14T04:53:37.476Z,0.00
2018-12-14T04:56:04.934Z,-0.20
2018-12-14T04:58:32.343Z,-0.30
2018-12-14T05:00:59.764Z,-0.30
2018-12-14T05:03:27.159Z,-0.20
2018-12-14T05:05:54.569Z,-0.30
2018-12-14T05:08:22.013Z,-0.30
2018-12-14T05:10:49.452Z,-0.30
2018-12-14T05:13:16.847Z,-0.20
2018-12-14T05:15:44.277Z,-0.20
2018-12-14T05:18:11.665Z,-0.20
2018-12-14T05:20:39.098Z,-0.20
2018-12-14T05:23:06.500Z,-0.20
2018-12-14T05:25:33.934Z,-0.30
2018-12-14T05:28:01.463Z,-0.40
2018-12-14T05:30:29.042Z,-0.30
2018-12-14T05:32:56.430Z,-0.40
2018-12-14T05:35:23.940Z,-0.30
2018-12-14T05:37:51.323Z,-0.30
2018-12-14T05:40:18.719Z,-0.30
2018-12-14T05:42:46.124Z,-0.20
2018-12-14T05:45:13.512Z,-0.30
2018-12-14T05:47:41.052Z,-0.30
2018-12-14T05:50:08.577Z,-0.30
2018-12-14T05:52:36.014Z,-0.40
2018-12-14T05:55:04.360Z,-0.40
2018-12-14T05:57:31.793Z,-0.30
2018-12-14T05:59:59.197Z,-0.20
2018-12-14T06:02:26.656Z,-0.20
2018-12-14T06:04:54.060Z,-0.30
2018-12-14T06:07:21.501Z,-0.30
2018-12-14T06:09:48.883Z,-0.40
2018-12-14T06:12:16.532Z,-0.40
2018-12-14T06:14:43.942Z,-0.40
2018-12-14T06:17:11.385Z,-0.40
2018-12-14T06:19:38.772Z,-0.40
2018-12-14T06:22:06.198Z,-0.40
2018-12-14T06:24:33.599Z,-0.30
2018-12-14T06:27:01.018Z,-0.40
2018-12-14T06:29:28.399Z,-0.40
2018-12-14T06:31:55.842Z,-0.30
2018-12-14T06:34:23.255Z,-0.40
2018-12-14T06:36:51.916Z,-0.30
2018-12-14T06:39:19.666Z,-0.30
2018-12-14T06:41:47.525Z,-0.30
2018-12-14T06:44:14.922Z,-0.30
2018-12-14T06:46:42.347Z,-0.30
2018-12-14T06:49:09.823Z,-0.30
2018-12-14T06:51:37.567Z,-0.30
2018-12-14T06:54:05.160Z,-0.30
2018-12-14T06:56:32.539Z,-0.30
2018-12-14T06:58:59.945Z,-0.30
2018-12-14T07:01:27.395Z,-0.30
2018-12-14T07:03:54.808Z,-0.30
2018-12-14T07:06:22.196Z,-0.30
2018-12-14T07:08:49.620Z,-0.40
2018-12-14T07:11:17.032Z,-0.30
2018-12-14T07:13:44.465Z,-0.20
2018-12-14T07:16:11.869Z,-0.20
2018-12-14T07:18:39.325Z,-0.20
2018-12-14T07:21:06.737Z,-0.30
2018-12-14T07:23:40.767Z,-0.30
2018-12-14T07:26:08.186Z,-0.30
2018-12-14T07:28:35.604Z,-0.40
2018-12-14T07:31:02.999Z,-0.40
2018-12-14T07:33:30.403Z,-0.40
2018-12-14T07:35:57.880Z,-0.30
2018-12-14T07:38:25.315Z,-0.40
2018-12-14T07:40:52.733Z,-0.40
2018-12-14T07:43:20.161Z,-0.30
2018-12-14T07:45:47.663Z,-0.30
2018-12-14T07:48:15.117Z,-0.30
2018-12-14T07:50:42.540Z,-0.30
2018-12-14T07:53:09.971Z,-0.20
2018-12-14T07:55:37.373Z,-0.30
2018-12-14T07:58:04.805Z,-0.40
2018-12-14T08:00:32.228Z,-0.30
2018-12-14T08:02:59.636Z,-0.30
2018-12-14T08:05:27.043Z,-0.30
2018-12-14T08:07:54.447Z,-0.30
2018-12-14T08:10:22.119Z,-0.30
2018-12-14T08:12:50.141Z,-0.30
2018-12-14T08:15:18.041Z,-0.30
2018-12-14T08:17:45.443Z,-0.30
2018-12-14T08:20:17.110Z,-0.30
2018-12-14T08:22:42.304Z,-0.30
2018-12-14T08:25:09.939Z,-0.30
2018-12-14T08:27:37.369Z,-0.40
2018-12-14T08:30:05.712Z,-0.30
2018-12-14T08:32:33.107Z,-0.20
2018-12-14T08:35:00.554Z,-0.20
2018-12-14T08:37:28.051Z,-0.20
2018-12-14T08:39:55.505Z,0.00
2018-12-14T08:42:29.544Z,-0.10
2018-12-14T08:44:56.960Z,-0.20
2018-12-14T08:47:24.498Z,-0.10
2018-12-14T08:49:51.908Z,-0.10
2018-12-14T08:52:19.308Z,-0.10
2018-12-14T08:54:46.728Z,-0.10
2018-12-14T08:57:14.160Z,-0.20
2018-12-14T08:59:41.605Z,0.00
2018-12-14T09:02:09.014Z,0.10
2018-12-14T09:04:36.444Z,0.20
2018-12-14T09:07:03.890Z,0.10
2018-12-14T09:09:31.299Z,0.10
2018-12-14T09:11:58.720Z,0.20
2018-12-14T09:14:26.203Z,0.20
2018-12-14T09:16:53.818Z,0.10
2018-12-14T09:19:21.228Z,0.10
2018-12-14T09:21:48.653Z,0.20
2018-12-14T09:24:16.171Z,0.20
2018-12-14T09:26:43.620Z,0.10
2018-12-14T09:29:11.471Z,0.10
2018-12-14T09:31:39.320Z,0.10
2018-12-14T09:34:06.816Z,0.20
2018-12-14T09:36:34.420Z,0.20
2018-12-14T09:39:02.230Z,0.20
2018-12-14T09:41:29.615Z,0.20
2018-12-14T09:43:57.070Z,0.20
2018-12-14T09:46:24.481Z,0.30
2018-12-14T09:48:51.989Z,0.20
2018-12-14T09:51:19.407Z,0.20
2018-12-14T09:53:46.825Z,0.20
2018-12-14T09:56:14.436Z,0.10
2018-12-14T09:58:41.838Z,0.10
2018-12-14T10:01:09.294Z,0.20
2018-12-14T10:03:36.832Z,0.30
2018-12-14T10:06:04.260Z,0.40
2018-12-14T10:08:31.692Z,0.20
2018-12-14T10:10:59.158Z,0.10
2018-12-14T10:13:26.764Z,0.20
2018-12-14T10:15:54.635Z,0.20
2018-12-14T10:18:22.040Z,0.30
2018-12-14T10:20:49.460Z,0.20
2018-12-14T10:23:16.848Z,0.20
2018-12-14T10:25:44.276Z,0.30
2018-12-14T10:28:11.682Z,0.20
2018-12-14T10:30:39.112Z,0.20
2018-12-14T10:33:06.526Z,0.10
2018-12-14T10:35:34.082Z,0.10
2018-12-14T10:38:01.508Z,0.10
2018-12-14T10:40:28.935Z,0.20
2018-12-14T10:42:56.357Z,0.30
2018-12-14T10:45:25.120Z,0.30
2018-12-14T10:47:52.657Z,0.30
2018-12-14T10:50:20.082Z,0.20
2018-12-14T10:52:47.516Z,0.20
2018-12-14T10:55:14.960Z,0.20
2018-12-14T10:57:42.709Z,0.30
2018-12-14T11:01:22.572Z,0.20
2018-12-14T11:03:49.972Z,0.20
2018-12-14T11:06:17.958Z,0.30
2018-12-14T11:08:45.392Z,0.30
2018-12-14T11:11:12.832Z,0.30
2018-12-14T11:13:40.240Z,0.20
2018-12-14T11:16:07.661Z,0.40
2018-12-14T11:18:35.097Z,0.30
2018-12-14T11:21:02.577Z,0.30
2018-12-14T11:23:29.963Z,0.40
2018-12-14T11:25:57.392Z,0.20
2018-12-14T11:28:24.863Z,0.20
2018-12-14T11:30:52.286Z,0.20
2018-12-14T11:33:19.684Z,0.30
2018-12-14T11:35:47.314Z,0.30
2018-12-14T11:38:14.684Z,0.50
2018-12-14T11:40:42.103Z,0.20
2018-12-14T11:43:09.515Z,0.20
2018-12-14T11:45:36.948Z,0.10
2018-12-14T11:48:04.345Z,0.20
2018-12-14T11:50:31.776Z,0.30
2018-12-14T11:52:59.156Z,0.30
2018-12-14T11:55:26.606Z,0.40
2018-12-14T11:57:54.009Z,0.30
2018-12-14T12:00:21.407Z,0.30
2018-12-14T12:02:48.840Z,0.30
2018-12-14T12:05:16.248Z,0.20
2018-12-14T12:07:44.015Z,0.20
2018-12-14T12:10:11.448Z,0.20
2018-12-14T12:12:39.155Z,0.20
2018-12-14T12:15:06.819Z,0.10
2018-12-14T12:17:36.149Z,0.00
2018-12-14T12:20:04.111Z,0.10
2018-12-14T12:22:31.512Z,0.20
2018-12-14T12:24:58.900Z,0.20
2018-12-14T12:27:26.440Z,0.20
2018-12-14T12:29:53.839Z,0.10
2018-12-14T12:32:21.273Z,0.00
2018-12-14T12:34:48.756Z,0.10
2018-12-14T12:37:16.175Z,0.00
2018-12-14T12:39:43.564Z,0.00
2018-12-14T12:42:11.028Z,0.00
2018-12-14T12:44:45.103Z,-0.10
2018-12-14T12:47:12.542Z,0.00
2018-12-14T12:49:39.957Z,0.00
2018-12-14T12:52:07.422Z,0.00
2018-12-14T12:54:34.907Z,0.00
2018-12-14T12:57:02.369Z,0.10
2018-12-14T12:59:30.027Z,0.30
2018-12-14T13:01:57.790Z,0.20
2018-12-14T13:04:25.214Z,0.30
2018-12-14T13:06:52.773Z,0.20
2018-12-14T13:09:20.287Z,0.00
2018-12-14T13:11:47.708Z,0.10
2018-12-14T13:14:15.111Z,0.10
2018-12-14T13:16:42.552Z,0.20
2018-12-14T13:19:09.948Z,0.30
2018-12-14T13:21:37.353Z,0.30
2018-12-14T13:24:04.757Z,0.20
2018-12-14T13:26:32.204Z,0.20
2018-12-14T13:28:59.597Z,0.10
2018-12-14T13:31:27.056Z,0.10
2018-12-14T13:33:54.453Z,0.10
2018-12-14T13:36:22.056Z,0.20
2018-12-14T13:38:49.478Z,0.20
2018-12-14T13:41:16.908Z,0.20
2018-12-14T13:43:44.296Z,0.10
2018-12-14T13:46:11.715Z,0.10
2018-12-14T13:48:39.151Z,0.10
2018-12-14T13:51:06.585Z,0.10
2018-12-14T13:53:34.064Z,0.10
2018-12-14T13:56:01.479Z,0.10
2018-12-14T13:58:28.934Z,0.10
2018-12-14T14:00:56.343Z,0.10
2018-12-14T14:03:23.764Z,0.00
2018-12-14T14:05:51.154Z,0.00
2018-12-14T14:08:18.605Z,0.00
2018-12-14T14:10:46.005Z,0.00
2018-12-14T14:13:13.474Z,0.00
2018-12-14T14:15:40.885Z,0.00
2018-12-14T14:18:08.347Z,0.10
2018-12-14T14:20:35.772Z,0.10
2018-12-14T14:23:03.226Z,0.00
2018-12-14T14:25:30.850Z,0.00
2018-12-14T14:27:58.308Z,0.00
2018-12-14T14:30:25.718Z,0.00
2018-12-14T14:32:53.167Z,0.10
2018-12-14T14:35:20.671Z,0.00
2018-12-14T14:37:48.084Z,-0.10
2018-12-14T14:40:15.474Z,0.00
2018-12-14T14:42:42.922Z,0.00
2018-12-14T14:45:10.336Z,-0.10
2018-12-14T14:47:37.797Z,-0.10
2018-12-14T14:50:07.371Z,-0.10
2018-12-14T14:52:34.914Z,-0.10
2018-12-14T14:55:02.564Z,-0.10
2018-12-14T14:57:30.438Z,0.00
2018-12-14T14:59:57.830Z,0.00
2018-12-14T15:02:25.281Z,0.00
2018-12-14T15:04:52.737Z,0.00
2018-12-14T15:07:20.193Z,0.00
2018-12-14T15:09:47.600Z,-0.10
2018-12-14T15:12:15.034Z,0.00
2018-12-14T15:14:42.471Z,-0.10
2018-12-14T15:17:09.884Z,-0.10
2018-12-14T15:19:37.297Z,-0.10
2018-12-14T15:22:04.932Z,-0.10
2018-12-14T15:24:32.617Z,-0.10
2018-12-14T15:27:00.079Z,-0.10
2018-12-14T15:29:27.513Z,0.00
2018-12-14T15:31:55.264Z,-0.10
2018-12-14T15:34:22.715Z,-0.10
2018-12-14T15:36:50.135Z,-0.10
2018-12-14T15:39:17.572Z,0.00
2018-12-14T15:41:44.997Z,0.00
2018-12-14T15:44:12.461Z,-0.10
2018-12-14T15:46:39.861Z,-0.10
2018-12-14T15:49:07.314Z,0.00
2018-12-14T15:51:34.713Z,-0.10
2018-12-14T15:54:02.148Z,-0.20
2018-12-14T15:56:29.701Z,-0.30
2018-12-14T15:58:57.148Z,-0.30
2018-12-14T16:01:24.684Z,-0.30
2018-12-14T16:03:52.212Z,-0.40
2018-12-14T16:06:19.620Z,-0.30
2018-12-14T16:08:47.073Z,-0.20
2018-12-14T16:11:14.494Z,-0.20
2018-12-14T16:13:42.093Z,-0.10
2018-12-14T16:16:09.480Z,-0.10
2018-12-14T16:18:36.945Z,-0.10
2018-12-14T16:21:04.584Z,-0.20
2018-12-14T16:23:32.038Z,-0.20
2018-12-14T16:25:59.460Z,-0.20
2018-12-14T16:28:26.867Z,-0.20
2018-12-14T16:30:54.276Z,-0.10
2018-12-14T16:33:21.793Z,-0.20
2018-12-14T16:35:49.392Z,-0.30
2018-12-14T16:38:16.797Z,-0.30
2018-12-14T16:40:44.256Z,-0.40
2018-12-14T16:45:45.945Z,-0.20
2018-12-14T16:48:13.667Z,-0.30
2018-12-14T16:50:41.125Z,-0.20
2018-12-14T16:53:08.527Z,-0.30
2018-12-14T16:55:35.993Z,-0.20
2018-12-14T16:58:03.527Z,-0.20
2018-12-14T17:00:30.999Z,-0.30
2018-12-14T17:02:58.645Z,-0.20
2018-12-14T17:05:26.102Z,-0.30
2018-12-14T17:07:53.496Z,-0.20
2018-12-14T17:10:20.979Z,-0.20
2018-12-14T17:12:48.391Z,-0.20
2018-12-14T17:15:15.847Z,-0.20
2018-12-14T17:17:43.263Z,-0.20
2018-12-14T17:20:10.841Z,-0.30
2018-12-14T17:22:38.252Z,-0.30
2018-12-14T17:25:06.652Z,-0.20
2018-12-14T17:27:34.052Z,-0.20
2018-12-14T17:30:01.492Z,-0.20
2018-12-14T17:32:29.164Z,-0.20
2018-12-14T17:34:56.788Z,-0.20
2018-12-14T17:37:24.191Z,-0.20
2018-12-14T17:39:51.658Z,-0.20
2018-12-14T17:42:19.167Z,-0.20
2018-12-14T17:44:46.612Z,-0.10
2018-12-14T17:47:14.031Z,-0.20
2018-12-14T17:49:41.500Z,-0.20
2018-12-14T17:52:08.887Z,-0.20
2018-12-14T17:54:36.325Z,-0.30
2018-12-14T17:57:03.712Z,-0.20
2018-12-14T17:59:31.152Z,-0.30
2018-12-14T18:01:58.574Z,-0.20
2018-12-14T18:04:26.027Z,-0.10
2018-12-14T18:06:53.438Z,-0.10
2018-12-14T18:09:20.907Z,-0.10
2018-12-14T18:11:48.316Z,-0.10
2018-12-14T18:14:15.780Z,-0.20
2018-12-14T18:16:43.215Z,-0.20
2018-12-14T18:19:10.995Z,-0.20
2018-12-14T18:21:38.388Z,-0.20
2018-12-14T18:24:05.837Z,-0.20
2018-12-14T18:26:33.239Z,-0.20
2018-12-14T18:29:00.716Z,-0.30
2018-12-14T18:31:28.111Z,-0.30
2018-12-14T18:33:55.548Z,-0.30
2018-12-14T18:36:23.226Z,-0.30
2018-12-14T18:38:50.613Z,-0.30
2018-12-14T18:41:18.066Z,-0.20
2018-12-14T18:43:45.449Z,-0.20
2018-12-14T18:46:12.928Z,-0.10
2018-12-14T18:48:40.320Z,-0.10
2018-12-14T18:51:07.784Z,0.00
2018-12-14T18:53:35.193Z,-0.10
2018-12-14T18:56:02.657Z,-0.10
2018-12-14T18:58:30.340Z,-0.10
2018-12-14T19:00:57.822Z,-0.20
2018-12-14T19:03:25.273Z,-0.10
2018-12-14T19:05:52.844Z,-0.10
2018-12-14T19:08:20.271Z,-0.10
2018-12-14T19:10:47.732Z,-0.10
2018-12-14T19:13:15.147Z,0.00
2018-12-14T19:15:42.640Z,0.00
2018-12-14T19:18:10.053Z,0.00
2018-12-14T19:20:37.533Z,-0.10
2018-12-14T19:23:04.921Z,-0.10
2018-12-14T19:25:32.365Z,-0.20
2018-12-14T19:27:59.756Z,-0.20
2018-12-14T19:30:27.199Z,-0.30
2018-12-14T19:32:54.627Z,-0.20
2018-12-14T19:35:22.071Z,-0.30
2018-12-14T19:37:49.472Z,-0.20
2018-12-14T19:40:16.936Z,-0.30
2018-12-14T19:42:44.351Z,-0.20
2018-12-14T19:45:11.928Z,-0.20
2018-12-14T19:47:39.340Z,-0.20
2018-12-14T19:50:07.720Z,-0.20
2018-12-14T19:52:36.253Z,-0.20
2018-12-14T19:55:04.650Z,-0.20
2018-12-14T19:57:32.052Z,-0.20
2018-12-14T19:59:59.628Z,-0.30
2018-12-14T20:02:27.173Z,-0.20
2018-12-14T20:04:54.868Z,-0.30
2018-12-14T20:07:22.376Z,-0.20
2018-12-14T20:09:50.101Z,-0.20
2018-12-14T20:12:17.508Z,-0.30
2018-12-14T20:14:44.948Z,-0.10
2018-12-14T20:17:12.351Z,-0.20
2018-12-14T20:19:39.805Z,-0.30
2018-12-14T20:22:07.207Z,-0.30
2018-12-14T20:24:34.824Z,-0.30
2018-12-14T20:27:02.239Z,-0.30
2018-12-14T20:29:29.699Z,-0.20
2018-12-14T20:31:57.099Z,-0.30
2018-12-14T20:34:24.504Z,-0.30
2018-12-14T20:36:51.970Z,-0.30
2018-12-14T20:39:19.352Z,-0.20
2018-12-14T20:41:46.917Z,-0.30
2018-12-14T20:44:14.337Z,-0.30
2018-12-14T20:46:41.765Z,-0.30
2018-12-14T20:49:09.170Z,-0.30
2018-12-14T20:51:36.643Z,-0.20
2018-12-14T20:54:04.065Z,-0.10
2018-12-14T20:56:31.526Z,-0.20
2018-12-14T20:58:58.934Z,-0.20
2018-12-14T21:01:26.377Z,-0.40
2018-12-14T21:03:53.791Z,-0.40
2018-12-14T21:06:21.252Z,-0.30
2018-12-14T21:08:48.649Z,-0.30
2018-12-14T21:11:16.407Z,-0.30
2018-12-14T21:13:43.864Z,-0.20
2018-12-14T21:16:11.282Z,-0.10
2018-12-14T21:18:38.816Z,-0.10
2018-12-14T21:21:06.215Z,-0.10
2018-12-14T21:23:33.656Z,-0.20
2018-12-14T21:26:01.056Z,-0.20
2018-12-14T21:28:29.040Z,-0.10
2018-12-14T21:30:56.453Z,-0.20
2018-12-14T21:33:23.901Z,-0.10
2018-12-14T21:35:51.295Z,-0.20
2018-12-14T21:38:18.700Z,-0.30
2018-12-14T21:40:46.148Z,0.30
2018-12-14T21:43:13.800Z,0.30
2018-12-14T21:45:41.486Z,0.00
2018-12-14T21:48:08.894Z,-0.10
2018-12-14T21:50:36.335Z,-0.20
2018-12-14T21:53:03.852Z,-0.20
2018-12-14T21:55:31.317Z,-0.20
2018-12-14T21:57:58.860Z,-0.20
2018-12-14T22:00:26.327Z,-0.20
2018-12-14T22:02:53.740Z,-0.20
2018-12-14T22:05:21.178Z,-0.20
2018-12-14T22:07:48.554Z,-0.20
2018-12-14T22:10:16.195Z,-0.30
2018-12-14T22:12:43.572Z,-0.30
2018-12-14T22:15:10.980Z,-0.30
2018-12-14T22:17:38.367Z,-0.30
2018-12-14T22:20:05.928Z,-0.20
2018-12-14T22:22:33.321Z,-0.20
2018-12-14T22:25:00.732Z,-0.20
2018-12-14T22:27:28.121Z,-0.20
2018-12-14T22:29:55.550Z,-0.30
2018-12-14T22:32:22.940Z,-0.40
2018-12-14T22:34:50.359Z,-0.40
2018-12-14T22:37:17.761Z,-0.50
2018-12-14T22:39:45.176Z,-0.40
2018-12-14T22:42:12.566Z,-0.40
2018-12-14T22:44:40.049Z,-0.40
2018-12-14T22:47:07.420Z,-0.40
2018-12-14T22:49:34.824Z,-0.40
2018-12-14T22:52:02.380Z,-0.40
2018-12-14T22:54:29.820Z,-0.30
2018-12-14T22:56:57.336Z,-0.30
2018-12-14T22:59:24.763Z,-0.50
2018-12-14T23:01:52.190Z,-0.60
2018-12-14T23:04:19.623Z,-0.40
2018-12-14T23:06:47.018Z,-0.40
2018-12-14T23:09:14.426Z,-0.40
2018-12-14T23:11:41.875Z,-0.50
2018-12-14T23:14:09.279Z,-0.50
2018-12-14T23:16:36.709Z,-0.50
2018-12-14T23:19:04.473Z,-0.50
2018-12-14T23:21:32.813Z,-0.60
2018-12-14T23:24:00.205Z,-0.50
2018-12-14T23:26:27.613Z,-0.60
2018-12-14T23:28:55.003Z,-0.60
2018-12-14T23:31:22.411Z,-0.50
2018-12-14T23:33:49.803Z,-0.50
2018-12-14T23:36:17.236Z,-0.40
2018-12-14T23:38:44.671Z,-0.40
2018-12-14T23:41:12.107Z,-0.50
2018-12-14T23:43:39.527Z,-0.60
2018-12-14T23:46:06.995Z,-0.50
2018-12-14T23:48:34.384Z,-0.60
2018-12-14T23:51:01.832Z,-0.60
2018-12-14T23:53:29.231Z,-0.50
2018-12-14T23:55:56.663Z,-0.50
2018-12-14T23:58:24.065Z,-0.60
